Milwaukee, Wisconsin
Traffic Map
Current Weather Conditions
Milwaukee, Wisconsin
Overcast Light Rain
Overcast
38°
Feels Like: 33°
Wind Chill: 33° Ceiling: 200
Heat Index: 38° Visibility: 1mi
Dew Point: 36° Wind: 7mph
Humidity: 93% Direction: 70° (ENE)
Pressure: 29.8in Gusts: 0mph
Raw Report DataKMKE 200352Z 07006KT 1SM -RA BR OVC002 03/02 A2980 RMK AO2 SFC VIS 1 1/2 SLP097 P0000 T00330022
Traffic Incident Summary
Active as of:
Severity:
Category:
InformationThere was an issue retrieving the traffic information for this location. Please try a different location or try again shortly.
Advertisements
Track Severe Weather on mobile